Hayward, California
Current Conditions -  °F | °C
As of 7:54 PM on Friday 24 Oct 2014 (Local Time) from KHWD Reporting Station
Clear Clear  
Wind Chill: 67°   Ceiling: Unl
Heat Index: 67°   Visibility: 10mi
Dew Point: 58°   Wind: 5mph
Humidity: 73%   Direction: NA
Pressure: 29.9"   Gusts: NA
Location:  37.67°N, 122.08°W
Report Text: KHWD 250254Z VRB04KT 10SM CLR 19/14 A2990 RMK AO2 SLP133 T01940144 53003
Loading
Personal Weather Stations






























Interactive Weather Map
Tropical Storm Tracking
New forecast layout! Learn more

10-Day Weather Forecast

Advertisements
Track Severe Weather on mobile